createdAt,value
2023-02-16T00:00:23.388Z,99.90
2023-02-16T00:05:24.371Z,99.90
2023-02-16T00:10:16.347Z,99.90
2023-02-16T00:15:20.347Z,99.90
2023-02-16T00:20:17.061Z,99.90
2023-02-16T00:25:10.263Z,99.90
2023-02-16T00:30:05.091Z,99.90
2023-02-16T00:34:57.035Z,99.90
2023-02-16T00:39:49.055Z,99.90
2023-02-16T00:44:49.347Z,99.90
2023-02-16T00:49:41.356Z,99.90
2023-02-16T00:54:34.506Z,99.90
2023-02-16T00:59:26.475Z,99.90
2023-02-16T01:04:22.485Z,99.90
2023-02-16T01:09:36.920Z,99.90
2023-02-16T01:14:31.905Z,99.90
2023-02-16T01:19:25.772Z,99.90
2023-02-16T01:24:17.974Z,99.90
2023-02-16T01:29:18.751Z,99.90
2023-02-16T01:34:11.569Z,99.90
2023-02-16T01:39:07.336Z,99.90
2023-02-16T01:44:09.159Z,99.90
2023-02-16T01:49:02.490Z,99.90
2023-02-16T01:54:07.522Z,99.90
2023-02-16T01:59:08.704Z,99.90
2023-02-16T02:04:20.050Z,99.90
2023-02-16T02:15:15.778Z,99.90
2023-02-16T02:20:18.665Z,99.90
2023-02-16T02:25:43.001Z,99.90
2023-02-16T02:30:52.566Z,99.90
2023-02-16T02:36:05.002Z,99.90
2023-02-16T02:41:07.532Z,99.90
2023-02-16T02:46:19.113Z,99.90
2023-02-16T02:51:30.537Z,99.90
2023-02-16T02:56:46.762Z,99.90
2023-02-16T03:01:43.067Z,99.90
2023-02-16T03:06:40.837Z,99.90
2023-02-16T03:11:51.458Z,99.90
2023-02-16T03:17:15.834Z,99.90
2023-02-16T03:22:26.163Z,99.90
2023-02-16T03:27:50.712Z,99.90
2023-02-16T03:32:43.884Z,99.90
2023-02-16T03:37:35.947Z,99.90
2023-02-16T03:42:27.951Z,99.90
2023-02-16T03:47:19.973Z,99.90
2023-02-16T03:52:12.147Z,99.90
2023-02-16T03:57:04.302Z,99.90
2023-02-16T04:01:56.805Z,99.90
2023-02-16T04:06:48.989Z,99.90
2023-02-16T04:11:59.696Z,99.90
2023-02-16T04:16:51.667Z,99.90
2023-02-16T04:21:43.740Z,99.90
2023-02-16T04:26:35.954Z,99.90
2023-02-16T04:31:28.070Z,99.90
2023-02-16T04:36:20.154Z,99.90
2023-02-16T04:41:12.105Z,99.90
2023-02-16T04:46:04.238Z,99.90
2023-02-16T04:50:56.227Z,99.90
2023-02-16T04:55:51.145Z,99.90
2023-02-16T05:00:44.372Z,99.90
2023-02-16T05:05:36.389Z,99.90
2023-02-16T05:10:28.820Z,99.90
2023-02-16T05:15:20.886Z,99.90
2023-02-16T05:20:14.487Z,99.90
2023-02-16T05:25:07.453Z,99.90
2023-02-16T05:30:00.941Z,99.90
2023-02-16T05:34:53.227Z,99.90
2023-02-16T05:39:45.467Z,99.90
2023-02-16T05:44:38.103Z,99.90
2023-02-16T05:49:30.159Z,99.90
2023-02-16T05:54:22.152Z,99.90
2023-02-16T05:59:16.096Z,99.90
2023-02-16T06:04:12.197Z,99.90
2023-02-16T06:09:06.187Z,99.90
2023-02-16T06:13:59.427Z,99.90
2023-02-16T06:18:51.503Z,99.90
2023-02-16T06:23:43.912Z,99.90
2023-02-16T06:28:36.080Z,99.90
2023-02-16T06:33:28.112Z,99.90
2023-02-16T06:38:20.092Z,99.90
2023-02-16T06:43:12.205Z,99.90
2023-02-16T06:48:04.621Z,99.90
2023-02-16T06:52:57.897Z,99.90
2023-02-16T06:57:49.925Z,99.90
2023-02-16T07:02:43.815Z,99.90
2023-02-16T07:07:35.877Z,99.90
2023-02-16T07:12:28.318Z,99.90
2023-02-16T07:17:20.295Z,99.90
2023-02-16T07:22:12.429Z,99.90
2023-02-16T07:27:05.298Z,99.90
2023-02-16T07:31:57.828Z,99.90
2023-02-16T07:36:50.028Z,99.90
2023-02-16T07:41:42.177Z,99.90
2023-02-16T07:46:34.268Z,99.90
2023-02-16T07:51:29.004Z,99.90
2023-02-16T07:56:26.642Z,99.90
2023-02-16T08:01:18.908Z,99.90
2023-02-16T08:06:10.996Z,99.90
2023-02-16T08:11:15.300Z,99.90
2023-02-16T08:16:11.471Z,99.90
2023-02-16T08:21:21.901Z,99.90
2023-02-16T08:26:17.195Z,99.90
2023-02-16T08:31:10.230Z,99.90
2023-02-16T08:36:03.614Z,99.90
2023-02-16T08:40:57.257Z,99.90
2023-02-16T08:45:49.879Z,99.90
2023-02-16T08:50:53.976Z,99.90
2023-02-16T08:55:54.192Z,99.90
2023-02-16T09:00:47.048Z,99.90
2023-02-16T09:05:40.604Z,99.90
2023-02-16T09:10:32.930Z,99.90
2023-02-16T09:15:24.934Z,99.90
2023-02-16T09:20:17.562Z,99.90
2023-02-16T09:25:11.373Z,99.90
2023-02-16T09:30:04.324Z,99.90
2023-02-16T09:34:56.743Z,98.40
2023-02-16T09:39:48.792Z,97.40
2023-02-16T09:45:02.767Z,96.20
2023-02-16T09:49:58.530Z,96.80
2023-02-16T09:54:59.585Z,94.60
2023-02-16T10:00:09.871Z,92.00
2023-02-16T10:05:14.215Z,91.60
2023-02-16T10:10:08.883Z,90.30
2023-02-16T10:15:08.774Z,86.40
2023-02-16T10:20:25.672Z,79.60
2023-02-16T10:25:42.362Z,77.00
2023-02-16T10:30:34.485Z,76.60
2023-02-16T10:35:45.557Z,73.10
2023-02-16T10:40:53.144Z,67.90
2023-02-16T10:45:54.329Z,65.90
2023-02-16T10:50:52.357Z,66.10
2023-02-16T10:55:44.830Z,66.20
2023-02-16T11:00:45.126Z,66.00
2023-02-16T11:05:39.098Z,64.40
2023-02-16T11:10:48.977Z,62.60
2023-02-16T11:15:41.673Z,60.40
2023-02-16T11:20:45.097Z,57.40
2023-02-16T11:25:37.801Z,56.50
2023-02-16T11:30:34.547Z,55.80
2023-02-16T11:35:27.198Z,56.90
2023-02-16T11:40:28.695Z,55.10
2023-02-16T11:45:34.473Z,55.50
2023-02-16T11:50:28.944Z,55.20
2023-02-16T11:55:33.353Z,56.90
2023-02-16T12:00:27.589Z,57.20
2023-02-16T12:05:32.392Z,58.10
2023-02-16T12:10:45.493Z,59.50
2023-02-16T12:16:00.580Z,60.90
2023-02-16T12:21:07.332Z,67.10
2023-02-16T12:26:36.042Z,72.20
2023-02-16T12:32:07.611Z,75.20
2023-02-16T12:37:20.885Z,79.10
2023-02-16T12:42:33.308Z,81.70
2023-02-16T12:47:35.091Z,83.90
2023-02-16T12:53:03.075Z,85.60
2023-02-16T12:58:04.348Z,85.60
2023-02-16T13:03:08.952Z,87.70
2023-02-16T13:08:18.279Z,89.70
2023-02-16T13:13:17.805Z,90.80
2023-02-16T13:18:24.126Z,92.10
2023-02-16T13:23:37.291Z,94.50
2023-02-16T13:28:55.725Z,96.80
2023-02-16T13:34:26.517Z,99.80
2023-02-16T13:39:49.566Z,99.90
2023-02-16T13:44:48.631Z,99.90
2023-02-16T13:49:46.413Z,99.90
2023-02-16T13:54:43.690Z,99.90
2023-02-16T13:59:36.391Z,99.90
2023-02-16T14:04:31.485Z,99.90
2023-02-16T14:09:33.714Z,99.90
2023-02-16T14:14:43.971Z,99.90
2023-02-16T14:19:36.362Z,99.90
2023-02-16T14:24:35.842Z,99.90
2023-02-16T14:29:38.852Z,99.90
2023-02-16T14:34:46.747Z,99.90
2023-02-16T14:39:53.304Z,99.90
2023-02-16T14:45:05.343Z,99.90
2023-02-16T14:50:11.724Z,99.90
2023-02-16T14:55:30.208Z,99.90
2023-02-16T15:00:30.997Z,99.90
2023-02-16T15:05:28.794Z,99.90
2023-02-16T15:10:26.908Z,99.90
2023-02-16T15:15:23.855Z,99.90
2023-02-16T15:20:35.068Z,99.90
2023-02-16T15:25:33.916Z,99.90
2023-02-16T15:30:29.882Z,99.90
2023-02-16T15:35:25.893Z,99.90
2023-02-16T15:40:27.013Z,99.90
2023-02-16T15:45:34.261Z,99.90
2023-02-16T15:50:26.905Z,99.90
2023-02-16T15:55:19.047Z,99.90
2023-02-16T16:00:20.898Z,99.90
2023-02-16T16:05:23.903Z,99.90
2023-02-16T16:10:22.972Z,99.90
2023-02-16T16:15:22.981Z,99.90
2023-02-16T16:20:31.982Z,99.90
2023-02-16T16:25:37.370Z,99.90
2023-02-16T16:30:32.364Z,99.90
2023-02-16T16:35:37.273Z,99.90
2023-02-16T16:40:35.338Z,99.90
2023-02-16T16:45:36.046Z,99.90
2023-02-16T16:50:32.569Z,99.90
2023-02-16T16:55:30.643Z,99.90
2023-02-16T17:00:25.512Z,99.90
2023-02-16T17:05:17.640Z,99.90
2023-02-16T17:10:10.046Z,99.90
2023-02-16T17:15:04.186Z,99.90
2023-02-16T17:19:56.096Z,99.90
2023-02-16T17:24:48.252Z,99.90
2023-02-16T17:29:42.864Z,99.90
2023-02-16T17:34:35.088Z,99.90
2023-02-16T17:39:27.074Z,99.90
2023-02-16T17:44:19.059Z,99.90
2023-02-16T17:49:11.698Z,99.90
2023-02-16T17:54:06.507Z,99.90
2023-02-16T17:58:59.448Z,99.90
2023-02-16T18:03:52.520Z,99.90
2023-02-16T18:08:45.298Z,99.90
2023-02-16T18:13:37.350Z,99.90
2023-02-16T18:18:30.545Z,99.90
2023-02-16T18:23:22.509Z,99.90
2023-02-16T18:28:20.850Z,99.90
2023-02-16T18:33:12.912Z,99.90
2023-02-16T18:38:04.985Z,99.90
2023-02-16T18:42:57.129Z,99.90
2023-02-16T18:47:49.356Z,99.90
2023-02-16T18:52:45.086Z,99.90
2023-02-16T18:57:37.544Z,99.90
2023-02-16T19:02:30.157Z,99.90
2023-02-16T19:07:22.176Z,99.90
2023-02-16T19:12:14.174Z,99.90
2023-02-16T19:17:06.225Z,99.90
2023-02-16T19:21:58.304Z,99.90
2023-02-16T19:26:50.482Z,99.90
2023-02-16T19:31:42.626Z,99.90
2023-02-16T19:36:34.824Z,99.90
2023-02-16T19:41:31.443Z,99.90
2023-02-16T19:46:24.263Z,99.90
2023-02-16T19:51:16.559Z,99.90
2023-02-16T19:56:11.917Z,99.90
2023-02-16T20:01:24.967Z,99.90
2023-02-16T20:06:32.594Z,99.90
2023-02-16T20:11:27.501Z,99.90
2023-02-16T20:16:20.655Z,99.90
2023-02-16T20:21:19.291Z,99.90
2023-02-16T20:26:15.433Z,99.90
2023-02-16T20:31:16.709Z,99.90
2023-02-16T20:36:09.265Z,99.90
2023-02-16T20:41:02.568Z,99.90
2023-02-16T20:45:54.708Z,99.90
2023-02-16T20:50:52.279Z,99.90
2023-02-16T20:55:44.217Z,99.90
2023-02-16T21:00:36.252Z,99.90
2023-02-16T21:05:28.306Z,99.90
2023-02-16T21:10:20.252Z,99.90
2023-02-16T21:15:12.884Z,99.90
2023-02-16T21:20:07.121Z,99.90
2023-02-16T21:24:59.166Z,99.90
2023-02-16T21:29:51.259Z,99.90
2023-02-16T21:34:44.016Z,99.90
2023-02-16T21:39:54.765Z,99.90
2023-02-16T21:44:50.075Z,99.90
2023-02-16T21:49:42.048Z,99.90
2023-02-16T21:54:52.515Z,99.90
2023-02-16T21:59:44.462Z,99.90
2023-02-16T22:04:36.560Z,99.90
2023-02-16T22:09:28.567Z,99.90
2023-02-16T22:14:20.584Z,99.90
2023-02-16T22:19:14.538Z,99.90
2023-02-16T22:24:07.452Z,99.90
2023-02-16T22:29:01.393Z,99.90
2023-02-16T22:34:04.638Z,99.90
2023-02-16T22:38:57.082Z,99.90
2023-02-16T22:43:53.447Z,99.90
2023-02-16T22:48:45.456Z,99.90
2023-02-16T22:53:37.627Z,99.90
2023-02-16T22:58:29.730Z,99.90
2023-02-16T23:03:21.906Z,99.90
2023-02-16T23:08:14.286Z,99.90
2023-02-16T23:13:09.793Z,99.90
2023-02-16T23:18:02.195Z,99.90
2023-02-16T23:22:54.256Z,99.90
2023-02-16T23:27:46.203Z,99.90
2023-02-16T23:32:38.175Z,99.90
2023-02-16T23:37:31.488Z,99.90
2023-02-16T23:42:23.558Z,99.90
2023-02-16T23:47:15.696Z,99.90
2023-02-16T23:52:07.686Z,99.90
2023-02-16T23:56:59.648Z,99.90
